Time;durP1;ratioP1;P1;durP2;ratioP2;P2;SDS_P1;SDS_P2;PMS_P1;PMS_P2;Temp;Humidity;BMP_temperature;BMP_pressure;BME280_temperature;BME280_humidity;BME280_pressure;Samples;Min_cycle;Max_cycle;Signal;HPM_P1;HPM_P2
2023/04/01 00:00:24;;;;;;;6.10;4.97;;;;;;;;;;5057790;28;20040;-58
2023/04/01 00:02:50;;;;;;;16.50;5.97;;;;;;;;;;5049627;28;20068;-59
2023/04/01 00:05:17;;;;;;;9.07;5.60;;;;;;;;;;5051479;28;20120;-58
2023/04/01 00:07:43;;;;;;;8.85;5.60;;;;;;;;;;5048043;28;20164;-58
2023/04/01 00:10:11;;;;;;;5.90;4.95;;;;;;;;;;5052103;28;20041;-58
2023/04/01 00:12:37;;;;;;;8.57;5.15;;;;;;;;;;5048925;28;20039;-58
2023/04/01 00:15:04;;;;;;;7.68;4.78;;;;;;;;;;5033106;28;20364;-58
2023/04/01 00:17:31;;;;;;;6.60;5.07;;;;;;;;;;5056689;28;20053;-58
2023/04/01 00:19:57;;;;;;;6.63;5.57;;;;;;;;;;5056520;28;20090;-58
2023/04/01 00:22:24;;;;;;;8.88;5.50;;;;;;;;;;5052715;28;20041;-58
2023/04/01 00:24:50;;;;;;;8.65;5.15;;;;;;;;;;5049443;28;20044;-58
2023/04/01 00:27:17;;;;;;;7.90;5.28;;;;;;;;;;5055360;28;20437;-58
2023/04/01 00:29:43;;;;;;;7.18;5.15;;;;;;;;;;5054408;28;20505;-58
2023/04/01 00:32:10;;;;;;;7.55;5.32;;;;;;;;;;5049870;28;20476;-58
2023/04/01 00:34:36;;;;;;;8.18;5.85;;;;;;;;;;5057329;28;20481;-58
2023/04/01 00:37:02;;;;;;;7.40;5.53;;;;;;;;;;5048595;28;20119;-58
2023/04/01 00:39:30;;;;;;;6.20;4.85;;;;;;;;;;5051713;28;20045;-58
2023/04/01 00:41:56;;;;;;;6.47;5.07;;;;;;;;;;5046997;28;20102;-58
2023/04/01 00:44:24;;;;;;;8.93;6.13;;;;;;;;;;5039830;28;20040;-58
2023/04/01 00:46:52;;;;;;;6.95;5.50;;;;;;;;;;5036246;28;20037;-58
2023/04/01 00:49:19;;;;;;;6.63;4.93;;;;;;;;;;5034399;28;20056;-58
2023/04/01 00:51:47;;;;;;;7.65;5.20;;;;;;;;;;5028620;28;20493;-58
2023/04/01 00:54:15;;;;;;;7.15;5.95;;;;;;;;;;5052983;28;20377;-58
2023/04/01 00:56:47;;;;;;;7.18;5.68;;;;;;;;;;5052922;28;20115;-58
2023/04/01 00:59:21;;;;;;;7.75;5.13;;;;;;;;;;5033688;28;20151;-58
2023/04/01 01:01:47;;;;;;;7.38;5.72;;;;;;;;;;5048538;28;20090;-58
2023/04/01 01:04:27;;;;;;;9.20;5.90;;;;;;;;;;5036216;28;20541;-58
2023/04/01 01:07:12;;;;;;;8.93;5.85;;;;;;;;;;5047708;28;20045;-58
2023/04/01 01:09:44;;;;;;;9.27;6.30;;;;;;;;;;5047212;28;20123;-58
2023/04/01 01:12:13;;;;;;;8.02;6.32;;;;;;;;;;5053977;28;20040;-58
2023/04/01 01:14:45;;;;;;;8.35;6.43;;;;;;;;;;5052551;28;20390;-58
2023/04/01 01:17:11;;;;;;;8.82;5.88;;;;;;;;;;5048445;28;20390;-58
2023/04/01 01:19:53;;;;;;;7.38;5.97;;;;;;;;;;5049440;28;20075;-58
2023/04/01 01:22:22;;;;;;;8.60;5.80;;;;;;;;;;5050717;28;20055;-58
2023/04/01 01:25:06;;;;;;;9.52;6.60;;;;;;;;;;5052203;28;20073;-58
2023/04/01 01:27:33;;;;;;;8.30;6.43;;;;;;;;;;5047350;28;20033;-58
2023/04/01 01:30:06;;;;;;;8.25;5.60;;;;;;;;;;5048299;28;20186;-58
2023/04/01 01:32:41;;;;;;;7.25;5.50;;;;;;;;;;5035171;28;20445;-58
2023/04/01 01:35:20;;;;;;;8.10;5.95;;;;;;;;;;5045756;28;20419;-58
2023/04/01 01:37:47;;;;;;;8.77;6.00;;;;;;;;;;5049850;28;20044;-58
2023/04/01 01:40:14;;;;;;;9.27;6.88;;;;;;;;;;5049816;28;20155;-58
2023/04/01 01:42:42;;;;;;;8.57;5.95;;;;;;;;;;5035094;28;20115;-58
2023/04/01 01:45:10;;;;;;;8.40;6.22;;;;;;;;;;5046667;28;20037;-58
2023/04/01 01:47:38;;;;;;;8.52;5.78;;;;;;;;;;5048411;28;20045;-58
2023/04/01 01:50:05;;;;;;;7.30;5.70;;;;;;;;;;5028470;28;20446;-58
2023/04/01 01:52:31;;;;;;;9.45;6.15;;;;;;;;;;5050296;28;20070;-58
2023/04/01 01:54:57;;;;;;;9.50;6.32;;;;;;;;;;5036068;28;20072;-58
2023/04/01 01:57:26;;;;;;;10.30;6.60;;;;;;;;;;5035000;28;20041;-58
2023/04/01 01:59:55;;;;;;;7.72;6.28;;;;;;;;;;5057219;28;20379;-58
2023/04/01 02:02:22;;;;;;;10.65;6.88;;;;;;;;;;5034730;28;20048;-58
2023/04/01 02:04:48;;;;;;;11.30;6.53;;;;;;;;;;5050511;28;20494;-58
2023/04/01 02:07:18;;;;;;;8.77;6.30;;;;;;;;;;5050504;28;20033;-58
2023/04/01 02:09:44;;;;;;;9.63;6.78;;;;;;;;;;5058906;28;20098;-58
2023/04/01 02:12:13;;;;;;;7.68;6.00;;;;;;;;;;5053840;28;20032;-58
2023/04/01 02:14:44;;;;;;;9.68;7.53;;;;;;;;;;5051194;28;20646;-58
2023/04/01 02:17:13;;;;;;;10.95;6.63;;;;;;;;;;5059247;28;20083;-58
2023/04/01 02:19:41;;;;;;;8.40;6.88;;;;;;;;;;5058062;28;20037;-59
2023/04/01 02:22:11;;;;;;;10.18;8.07;;;;;;;;;;5052521;28;20469;-58
2023/04/01 02:24:39;;;;;;;9.95;7.38;;;;;;;;;;5048040;28;20077;-58
2023/04/01 02:27:05;;;;;;;8.68;6.80;;;;;;;;;;5053012;28;20053;-58
2023/04/01 02:29:32;;;;;;;8.50;6.15;;;;;;;;;;5051314;28;20033;-58
2023/04/01 02:31:58;;;;;;;8.43;6.10;;;;;;;;;;5056972;28;20041;-58
2023/04/01 02:34:25;;;;;;;12.35;6.47;;;;;;;;;;5044557;28;20091;-58
2023/04/01 02:36:51;;;;;;;8.48;6.20;;;;;;;;;;5054999;28;20041;-58
2023/04/01 02:39:18;;;;;;;8.75;6.53;;;;;;;;;;5052581;28;20123;-58
2023/04/01 02:41:45;;;;;;;11.00;7.18;;;;;;;;;;5056157;28;20056;-58
2023/04/01 02:44:12;;;;;;;9.38;7.05;;;;;;;;;;5058066;28;20041;-58
2023/04/01 02:46:39;;;;;;;11.70;7.00;;;;;;;;;;5020675;28;20098;-58
2023/04/01 02:49:05;;;;;;;9.70;6.88;;;;;;;;;;5051769;28;20049;-58
2023/04/01 02:51:32;;;;;;;10.10;7.28;;;;;;;;;;5050065;28;20044;-58
2023/04/01 02:53:59;;;;;;;10.48;7.03;;;;;;;;;;5058151;28;20508;-58
2023/04/01 02:56:25;;;;;;;9.57;7.25;;;;;;;;;;5060785;28;20041;-58
2023/04/01 02:58:52;;;;;;;8.57;6.13;;;;;;;;;;5049540;28;20028;-58
2023/04/01 03:01:18;;;;;;;7.93;6.22;;;;;;;;;;5050453;28;20063;-58
2023/04/01 03:03:44;;;;;;;8.70;7.30;;;;;;;;;;5051304;28;20461;-58
2023/04/01 03:06:12;;;;;;;9.13;6.88;;;;;;;;;;5053367;28;20376;-58
2023/04/01 03:08:38;;;;;;;7.68;6.40;;;;;;;;;;5032566;28;20078;-58
2023/04/01 03:11:05;;;;;;;11.23;8.52;;;;;;;;;;5035531;28;20036;-58
2023/04/01 03:13:32;;;;;;;11.25;7.80;;;;;;;;;;5033623;28;20060;-58
2023/04/01 03:15:58;;;;;;;9.63;7.35;;;;;;;;;;5052672;28;20049;-58
2023/04/01 03:18:25;;;;;;;10.57;7.90;;;;;;;;;;5051982;28;20040;-58
2023/04/01 03:20:51;;;;;;;9.20;6.88;;;;;;;;;;5051103;28;20114;-58
2023/04/01 03:23:19;;;;;;;9.25;6.60;;;;;;;;;;5057042;28;20029;-58
2023/04/01 03:25:45;;;;;;;11.23;8.60;;;;;;;;;;5045200;28;20058;-58
2023/04/01 03:28:12;;;;;;;8.90;6.88;;;;;;;;;;5048056;28;20157;-58
2023/04/01 03:30:39;;;;;;;11.55;8.80;;;;;;;;;;5034626;28;20120;-59
2023/04/01 03:33:05;;;;;;;8.57;6.75;;;;;;;;;;5049632;28;20045;-58
2023/04/01 03:35:31;;;;;;;12.38;7.63;;;;;;;;;;5053734;28;20044;-58
2023/04/01 03:37:57;;;;;;;9.10;8.00;;;;;;;;;;5048151;28;20042;-58
2023/04/01 03:40:25;;;;;;;10.35;7.57;;;;;;;;;;5057220;28;20060;-58
2023/04/01 03:42:52;;;;;;;9.75;6.80;;;;;;;;;;5049405;28;20414;-58
2023/04/01 03:45:18;;;;;;;10.25;7.57;;;;;;;;;;5052008;28;20040;-58
2023/04/01 03:47:45;;;;;;;12.10;7.70;;;;;;;;;;5015522;28;20045;-58
2023/04/01 03:50:11;;;;;;;11.13;8.13;;;;;;;;;;5051622;28;20153;-58
2023/04/01 03:52:37;;;;;;;12.48;8.98;;;;;;;;;;5038475;28;20097;-58
2023/04/01 03:55:03;;;;;;;12.18;8.10;;;;;;;;;;5034452;28;20096;-58
2023/04/01 03:57:31;;;;;;;9.93;7.45;;;;;;;;;;5043096;28;20441;-58
2023/04/01 03:59:57;;;;;;;11.38;7.32;;;;;;;;;;5055876;28;20041;-58
2023/04/01 04:02:24;;;;;;;9.73;7.82;;;;;;;;;;5054811;28;20039;-58
2023/04/01 04:04:50;;;;;;;11.85;8.25;;;;;;;;;;5046116;28;20041;-58
2023/04/01 04:07:16;;;;;;;10.80;8.38;;;;;;;;;;5047676;28;20044;-58
2023/04/01 04:09:42;;;;;;;13.25;8.98;;;;;;;;;;5058097;28;20040;-58
2023/04/01 04:12:08;;;;;;;15.68;9.20;;;;;;;;;;5034805;28;20171;-58
2023/04/01 04:14:34;;;;;;;11.63;8.88;;;;;;;;;;5048939;28;20505;-58
2023/04/01 04:17:00;;;;;;;12.18;8.63;;;;;;;;;;5049216;28;20112;-58
2023/04/01 04:19:27;;;;;;;13.63;9.13;;;;;;;;;;5053284;28;20049;-58
2023/04/01 04:21:53;;;;;;;10.77;7.80;;;;;;;;;;5050579;28;20454;-58
2023/04/01 04:24:19;;;;;;;12.35;8.90;;;;;;;;;;5048421;28;20270;-58
2023/04/01 04:26:45;;;;;;;12.30;8.68;;;;;;;;;;5035121;28;20079;-58
2023/04/01 04:29:11;;;;;;;13.05;9.30;;;;;;;;;;5050055;28;20527;-58
2023/04/01 04:31:37;;;;;;;12.98;8.20;;;;;;;;;;5032964;28;20073;-58
2023/04/01 04:34:03;;;;;;;13.65;9.98;;;;;;;;;;5029562;28;20243;-58
2023/04/01 04:36:29;;;;;;;11.35;8.68;;;;;;;;;;5034572;28;20051;-58
2023/04/01 04:38:57;;;;;;;12.73;9.40;;;;;;;;;;5049844;28;20051;-58
2023/04/01 04:41:23;;;;;;;13.57;9.65;;;;;;;;;;5048352;28;20110;-58
2023/04/01 04:43:51;;;;;;;14.00;9.82;;;;;;;;;;5053235;28;20827;-58
2023/04/01 04:46:18;;;;;;;13.60;10.48;;;;;;;;;;5049414;28;20541;-58
2023/04/01 04:48:44;;;;;;;15.23;9.30;;;;;;;;;;5047002;28;20352;-58
2023/04/01 04:51:14;;;;;;;14.35;10.68;;;;;;;;;;5046854;28;20043;-58
2023/04/01 04:53:40;;;;;;;15.55;10.52;;;;;;;;;;5033384;28;20147;-58
2023/04/01 04:56:06;;;;;;;15.80;11.13;;;;;;;;;;5058723;28;20109;-58
2023/04/01 04:58:33;;;;;;;15.18;11.30;;;;;;;;;;5045992;28;20425;-58
2023/04/01 05:00:59;;;;;;;17.70;11.20;;;;;;;;;;5049051;28;20099;-58
2023/04/01 05:03:25;;;;;;;16.42;11.32;;;;;;;;;;5047319;28;20124;-58
2023/04/01 05:05:52;;;;;;;15.45;11.00;;;;;;;;;;5034852;28;20475;-58
2023/04/01 05:08:19;;;;;;;18.80;11.88;;;;;;;;;;5044538;28;20509;-58
2023/04/01 05:10:45;;;;;;;15.57;11.68;;;;;;;;;;5044024;28;20541;-58
2023/04/01 05:13:11;;;;;;;17.90;11.15;;;;;;;;;;5058623;28;20072;-58
2023/04/01 05:15:37;;;;;;;17.73;12.20;;;;;;;;;;5032705;28;20057;-58
2023/04/01 05:18:03;;;;;;;16.13;11.52;;;;;;;;;;5046613;28;20295;-58
2023/04/01 05:20:30;;;;;;;16.40;11.88;;;;;;;;;;5045565;28;20516;-58
2023/04/01 05:22:56;;;;;;;18.38;11.70;;;;;;;;;;5055877;28;20036;-59
2023/04/01 05:25:23;;;;;;;16.75;11.02;;;;;;;;;;5046130;28;20068;-58
2023/04/01 05:27:49;;;;;;;17.42;12.25;;;;;;;;;;5048007;28;20072;-58
2023/04/01 05:30:15;;;;;;;14.95;11.10;;;;;;;;;;5029305;28;20128;-58
2023/04/01 05:32:41;;;;;;;17.80;11.93;;;;;;;;;;5055239;28;20110;-58
2023/04/01 05:35:07;;;;;;;14.80;10.88;;;;;;;;;;5030956;28;20063;-58
2023/04/01 05:37:35;;;;;;;14.63;10.27;;;;;;;;;;5012938;28;20142;-58
2023/04/01 05:40:01;;;;;;;19.25;12.07;;;;;;;;;;5050848;28;20116;-58
2023/04/01 05:42:27;;;;;;;15.90;11.00;;;;;;;;;;5048588;28;20045;-58
2023/04/01 05:44:55;;;;;;;14.85;10.82;;;;;;;;;;5044236;28;20059;-58
2023/04/01 05:47:21;;;;;;;18.38;10.85;;;;;;;;;;5043870;28;20096;-58
2023/04/01 05:49:48;;;;;;;16.23;11.48;;;;;;;;;;5043508;28;20066;-58
2023/04/01 05:52:14;;;;;;;14.35;10.50;;;;;;;;;;5046289;28;20430;-58
2023/04/01 05:54:40;;;;;;;16.60;12.23;;;;;;;;;;5047878;28;20037;-58
2023/04/01 05:57:06;;;;;;;13.80;10.02;;;;;;;;;;5046034;28;20052;-58
2023/04/01 05:59:34;;;;;;;17.63;11.40;;;;;;;;;;5054804;28;20514;-58
2023/04/01 06:02:01;;;;;;;14.48;10.27;;;;;;;;;;5047384;28;20114;-58
2023/04/01 06:04:30;;;;;;;17.48;11.02;;;;;;;;;;5046258;28;20108;-58
2023/04/01 06:06:56;;;;;;;14.18;10.23;;;;;;;;;;5043571;28;20049;-58
2023/04/01 06:09:29;;;;;;;14.40;10.38;;;;;;;;;;5051625;28;20036;-58
2023/04/01 06:12:13;;;;;;;14.10;10.00;;;;;;;;;;5045346;28;20140;-58
2023/04/01 06:14:42;;;;;;;14.95;10.25;;;;;;;;;;5041206;28;20447;-58
2023/04/01 06:17:14;;;;;;;15.48;10.57;;;;;;;;;;5045547;28;20536;-58
2023/04/01 06:19:59;;;;;;;15.77;10.90;;;;;;;;;;5049611;28;20045;-58
2023/04/01 06:22:25;;;;;;;14.52;10.60;;;;;;;;;;5042404;28;20284;-58
2023/04/01 06:25:03;;;;;;;14.50;10.13;;;;;;;;;;5044732;28;20475;-58
2023/04/01 06:27:44;;;;;;;15.55;10.30;;;;;;;;;;5045164;28;20052;-58
2023/04/01 06:30:25;;;;;;;14.45;10.65;;;;;;;;;;5045360;28;20044;-58
2023/04/01 06:32:59;;;;;;;14.95;10.10;;;;;;;;;;5046247;28;20112;-58
2023/04/01 06:35:44;;;;;;;15.35;10.48;;;;;;;;;;5041925;28;20034;-58
2023/04/01 06:38:29;;;;;;;14.00;10.18;;;;;;;;;;5045044;28;20069;-58
2023/04/01 06:40:58;;;;;;;16.17;11.80;;;;;;;;;;5030971;28;20109;-58
2023/04/01 06:43:43;;;;;;;15.55;10.32;;;;;;;;;;5033962;28;20645;-58
2023/04/01 06:46:20;;;;;;;15.23;10.57;;;;;;;;;;5048446;28;20091;-58
2023/04/01 06:48:58;;;;;;;14.38;9.68;;;;;;;;;;5046410;28;20049;-58
2023/04/01 06:51:30;;;;;;;14.70;9.48;;;;;;;;;;5047839;28;20401;-58
2023/04/01 06:54:15;;;;;;;14.53;9.23;;;;;;;;;;5047888;28;20043;-59
2023/04/01 06:56:43;;;;;;;13.05;9.80;;;;;;;;;;5055509;28;20425;-58
2023/04/01 06:59:20;;;;;;;14.63;10.13;;;;;;;;;;5051312;28;20052;-58
2023/04/01 07:01:48;;;;;;;13.80;9.05;;;;;;;;;;5048039;28;20052;-59
2023/04/01 07:04:23;;;;;;;12.55;9.25;;;;;;;;;;5058295;28;20624;-58
2023/04/01 07:06:49;;;;;;;12.98;9.48;;;;;;;;;;5047477;28;20104;-58
2023/04/01 07:09:38;;;;;;;13.77;9.82;;;;;;;;;;5049916;28;20513;-58
2023/04/01 07:12:24;;;;;;;13.60;9.30;;;;;;;;;;5036673;28;20483;-57
2023/04/01 07:14:52;;;;;;;15.48;11.25;;;;;;;;;;5013810;28;20080;-58
2023/04/01 07:17:21;;;;;;;13.13;9.40;;;;;;;;;;5047436;28;20045;-58
2023/04/01 07:19:47;;;;;;;14.82;9.88;;;;;;;;;;5029672;28;20090;-58
2023/04/01 07:22:13;;;;;;;17.67;11.35;;;;;;;;;;5049591;28;20053;-58
2023/04/01 07:24:44;;;;;;;16.65;10.63;;;;;;;;;;5038030;28;20045;-58
2023/04/01 07:27:11;;;;;;;16.55;11.55;;;;;;;;;;5044825;28;20083;-58
2023/04/01 07:29:37;;;;;;;16.42;12.38;;;;;;;;;;5040552;28;20048;-58
2023/04/01 07:32:12;;;;;;;15.10;11.20;;;;;;;;;;5046169;28;20037;-58
2023/04/01 07:34:51;;;;;;;16.83;12.40;;;;;;;;;;5047694;28;20047;-58
2023/04/01 07:37:17;;;;;;;18.58;11.57;;;;;;;;;;5047883;28;20037;-58
2023/04/01 07:39:49;;;;;;;17.30;11.52;;;;;;;;;;5030955;28;20041;-58
2023/04/01 07:42:33;;;;;;;16.67;10.80;;;;;;;;;;5050377;28;20068;-58
2023/04/01 07:45:18;;;;;;;14.88;11.23;;;;;;;;;;5024157;28;20049;-58
2023/04/01 07:47:47;;;;;;;17.05;11.82;;;;;;;;;;5048350;28;20123;-58
2023/04/01 07:50:20;;;;;;;16.92;11.98;;;;;;;;;;5048254;28;20174;-58
2023/04/01 07:52:52;;;;;;;17.38;11.95;;;;;;;;;;5047953;28;20482;-58
2023/04/01 07:55:18;;;;;;;18.65;12.68;;;;;;;;;;5045171;28;20044;-58
2023/04/01 07:57:57;;;;;;;18.85;12.88;;;;;;;;;;5047439;28;20147;-58
2023/04/01 08:00:25;;;;;;;19.55;12.82;;;;;;;;;;5039459;28;20044;-58
2023/04/01 08:02:51;;;;;;;15.95;10.90;;;;;;;;;;5045538;28;20048;-58
2023/04/01 08:05:20;;;;;;;20.75;11.93;;;;;;;;;;5047003;28;20135;-58
2023/04/01 08:08:06;;;;;;;18.23;13.23;;;;;;;;;;5045850;28;20316;-58
2023/04/01 08:10:50;;;;;;;21.08;14.73;;;;;;;;;;5039584;28;20048;-58
2023/04/01 08:13:38;;;;;;;21.80;13.93;;;;;;;;;;5040233;28;20044;-58
2023/04/01 08:16:16;;;;;;;21.52;13.40;;;;;;;;;;5047991;28;20466;-58
2023/04/01 08:18:48;;;;;;;18.52;12.50;;;;;;;;;;5053211;28;20033;-58
2023/04/01 08:21:22;;;;;;;18.95;12.73;;;;;;;;;;5046530;28;20115;-58
2023/04/01 08:23:50;;;;;;;21.75;12.75;;;;;;;;;;5048102;28;20467;-58
2023/04/01 08:26:16;;;;;;;19.00;11.30;;;;;;;;;;5056531;28;20067;-58
2023/04/01 08:28:45;;;;;;;16.55;10.35;;;;;;;;;;5049935;28;20075;-58
2023/04/01 08:31:14;;;;;;;17.13;9.73;;;;;;;;;;5049916;28;20041;-58
2023/04/01 08:33:41;;;;;;;14.68;9.52;;;;;;;;;;5050752;28;20037;-58
2023/04/01 08:36:17;;;;;;;17.73;8.68;;;;;;;;;;5050493;28;20040;-58
2023/04/01 08:38:58;;;;;;;16.67;8.07;;;;;;;;;;5049337;28;20124;-58
2023/04/01 08:41:33;;;;;;;16.27;8.77;;;;;;;;;;5051662;28;20041;-58
2023/04/01 08:44:09;;;;;;;12.10;7.35;;;;;;;;;;5034118;28;20355;-58
2023/04/01 08:46:35;;;;;;;15.38;8.65;;;;;;;;;;5051343;28;20044;-58
2023/04/01 08:49:05;;;;;;;11.68;6.95;;;;;;;;;;5042260;28;20076;-58
2023/04/01 08:51:37;;;;;;;18.77;7.20;;;;;;;;;;5045441;28;20047;-58
2023/04/01 08:54:07;;;;;;;11.43;6.65;;;;;;;;;;5047818;28;20059;-58
2023/04/01 08:56:36;;;;;;;10.40;6.75;;;;;;;;;;5056943;28;20040;-58
2023/04/01 08:59:03;;;;;;;10.23;6.43;;;;;;;;;;5054143;28;20044;-58
2023/04/01 09:01:35;;;;;;;10.93;6.60;;;;;;;;;;5050560;28;20033;-58
2023/04/01 09:04:20;;;;;;;9.15;6.85;;;;;;;;;;5050457;28;20079;-58
2023/04/01 09:07:05;;;;;;;8.88;6.35;;;;;;;;;;5055141;28;20073;-58
2023/04/01 09:09:31;;;;;;;8.63;5.90;;;;;;;;;;5047466;28;20033;-58
2023/04/01 09:12:06;;;;;;;8.95;5.97;;;;;;;;;;5031364;28;20490;-58
2023/04/01 09:14:51;;;;;;;9.10;6.38;;;;;;;;;;5054754;28;20063;-58
2023/04/01 09:17:20;;;;;;;9.85;6.35;;;;;;;;;;5046392;28;20040;-58
2023/04/01 09:20:04;;;;;;;8.80;5.40;;;;;;;;;;5050507;28;20041;-58
2023/04/01 09:22:30;;;;;;;8.50;5.95;;;;;;;;;;5047016;28;20076;-58
2023/04/01 09:25:16;;;;;;;7.97;4.57;;;;;;;;;;5052069;28;20098;-57
2023/04/01 09:27:42;;;;;;;8.05;4.07;;;;;;;;;;5053864;28;20044;-58
2023/04/01 09:30:20;;;;;;;7.35;4.53;;;;;;;;;;5050595;28;20041;-58
2023/04/01 09:32:52;;;;;;;6.97;4.00;;;;;;;;;;5029167;28;20106;-58
2023/04/01 09:35:26;;;;;;;4.80;3.03;;;;;;;;;;5048657;28;20136;-58
2023/04/01 09:37:52;;;;;;;4.82;3.47;;;;;;;;;;5048602;28;20041;-58
2023/04/01 09:40:37;;;;;;;5.30;3.00;;;;;;;;;;5050556;28;20044;-58
2023/04/01 09:43:22;;;;;;;7.97;3.53;;;;;;;;;;5046532;28;20116;-58
2023/04/01 09:46:00;;;;;;;5.63;3.83;;;;;;;;;;5049622;28;20478;-58
2023/04/01 09:48:35;;;;;;;6.68;3.78;;;;;;;;;;5050698;28;20050;-58
2023/04/01 09:51:14;;;;;;;8.00;4.82;;;;;;;;;;5030682;28;20051;-58
2023/04/01 09:53:43;;;;;;;10.25;6.10;;;;;;;;;;5047745;28;20045;-58
2023/04/01 09:56:10;;;;;;;6.85;4.55;;;;;;;;;;5051349;28;20041;-58
2023/04/01 09:58:38;;;;;;;6.95;4.88;;;;;;;;;;5046933;28;20850;-58
2023/04/01 10:01:23;;;;;;;6.03;4.18;;;;;;;;;;5038593;28;20033;-58
2023/04/01 10:03:56;;;;;;;7.82;4.65;;;;;;;;;;5045817;28;20025;-58
2023/04/01 10:06:40;;;;;;;7.93;5.07;;;;;;;;;;5042043;28;20087;-58
2023/04/01 10:09:10;;;;;;;6.57;4.68;;;;;;;;;;5038219;28;20080;-58
2023/04/01 10:11:55;;;;;;;8.23;4.85;;;;;;;;;;5034147;28;20122;-58
2023/04/01 10:14:24;;;;;;;5.50;4.22;;;;;;;;;;5047717;28;20618;-58
2023/04/01 10:17:01;;;;;;;7.78;5.47;;;;;;;;;;5033353;28;20037;-58
2023/04/01 10:19:45;;;;;;;8.57;4.85;;;;;;;;;;5053685;28;20049;-58
2023/04/01 10:22:18;;;;;;;6.75;4.63;;;;;;;;;;5027002;28;20111;-59
2023/04/01 10:24:44;;;;;;;6.53;4.32;;;;;;;;;;5046173;28;20047;-58
2023/04/01 10:27:10;;;;;;;8.25;4.63;;;;;;;;;;5040520;28;20478;-59
2023/04/01 10:29:45;;;;;;;6.80;3.88;;;;;;;;;;5039383;28;20041;-58
2023/04/01 10:32:30;;;;;;;5.47;4.00;;;;;;;;;;5052206;28;20145;-58
2023/04/01 10:35:05;;;;;;;5.75;3.95;;;;;;;;;;5048265;28;20044;-58
2023/04/01 10:37:40;;;;;;;4.82;3.50;;;;;;;;;;5055047;28;20127;-58
2023/04/01 10:40:07;;;;;;;5.53;3.55;;;;;;;;;;5057743;28;20044;-58
2023/04/01 10:43:00;;;;;;;5.30;4.07;;;;;;;;;;5053874;28;20343;-58
2023/04/01 10:45:44;;;;;;;5.22;3.25;;;;;;;;;;5014331;28;20276;-58
2023/04/01 10:48:16;;;;;;;6.10;4.03;;;;;;;;;;5039628;28;20113;-58
2023/04/01 10:50:42;;;;;;;5.47;4.10;;;;;;;;;;5048091;28;20464;-59
2023/04/01 10:53:11;;;;;;;10.52;3.97;;;;;;;;;;5033209;28;20040;-58
2023/04/01 10:55:38;;;;;;;7.55;3.97;;;;;;;;;;5057528;28;20362;-58
2023/04/01 10:58:22;;;;;;;4.82;3.63;;;;;;;;;;5053091;28;20044;-58
2023/04/01 11:01:09;;;;;;;6.18;4.55;;;;;;;;;;5033101;28;20501;-58
2023/04/01 11:03:54;;;;;;;5.28;3.70;;;;;;;;;;5016156;28;20128;-58
2023/04/01 11:06:20;;;;;;;5.28;3.45;;;;;;;;;;5049369;28;20034;-58
2023/04/01 11:08:49;;;;;;;8.95;4.30;;;;;;;;;;5048451;28;20044;-58
2023/04/01 11:11:19;;;;;;;6.60;4.03;;;;;;;;;;5036431;28;20032;-58
2023/04/01 11:13:48;;;;;;;4.88;3.85;;;;;;;;;;5049993;28;20343;-58
2023/04/01 11:16:14;;;;;;;5.75;3.30;;;;;;;;;;5044024;28;20475;-59
2023/04/01 11:18:52;;;;;;;4.25;2.90;;;;;;;;;;5043854;28;20188;-58
2023/04/01 11:21:31;;;;;;;8.18;3.28;;;;;;;;;;5047724;28;20041;-58
2023/04/01 11:24:00;;;;;;;4.35;2.92;;;;;;;;;;5027478;28;20091;-58
2023/04/01 11:26:26;;;;;;;3.17;2.30;;;;;;;;;;5031523;28;20092;-58
2023/04/01 11:28:55;;;;;;;3.20;2.60;;;;;;;;;;5047354;28;20059;-59
2023/04/01 11:31:24;;;;;;;5.40;2.67;;;;;;;;;;5047420;28;20043;-59
2023/04/01 11:33:53;;;;;;;4.30;2.60;;;;;;;;;;5050948;28;20174;-59
2023/04/01 11:36:26;;;;;;;5.30;2.67;;;;;;;;;;5047056;28;20029;-59
2023/04/01 11:39:05;;;;;;;4.57;3.90;;;;;;;;;;5048482;28;20102;-60
2023/04/01 11:41:52;;;;;;;6.47;2.60;;;;;;;;;;5048039;28;20461;-59
2023/04/01 11:44:20;;;;;;;5.18;2.90;;;;;;;;;;5050107;28;20044;-60
2023/04/01 11:46:46;;;;;;;5.43;3.72;;;;;;;;;;5051497;28;20049;-61
2023/04/01 11:49:15;;;;;;;3.63;2.60;;;;;;;;;;5045210;28;20124;-60
2023/04/01 11:51:55;;;;;;;4.60;2.65;;;;;;;;;;5049906;28;20044;-59
2023/04/01 11:54:39;;;;;;;5.18;3.20;;;;;;;;;;5049182;28;20040;-60
2023/04/01 11:57:08;;;;;;;4.95;2.45;;;;;;;;;;5045454;28;20076;-60
2023/04/01 11:59:40;;;;;;;4.95;2.97;;;;;;;;;;5047227;28;20041;-60
2023/04/01 12:02:29;;;;;;;4.57;3.20;;;;;;;;;;5054856;28;20044;-60
2023/04/01 12:05:21;;;;;;;5.03;2.80;;;;;;;;;;5022242;28;20166;-60
2023/04/01 12:08:08;;;;;;;3.80;2.83;;;;;;;;;;4989017;28;20061;-61
2023/04/01 12:10:39;;;;;;;4.88;2.95;;;;;;;;;;5046789;28;20498;-60
2023/04/01 12:13:11;;;;;;;4.20;2.67;;;;;;;;;;5046007;28;20124;-60
2023/04/01 12:15:37;;;;;;;5.27;3.03;;;;;;;;;;5043145;28;20049;-61
2023/04/01 12:18:03;;;;;;;4.35;2.72;;;;;;;;;;5050440;28;20041;-62
2023/04/01 12:20:36;;;;;;;6.38;3.25;;;;;;;;;;5041541;28;20082;-60
2023/04/01 12:23:17;;;;;;;3.83;2.38;;;;;;;;;;5003767;28;20044;-61
2023/04/01 12:25:43;;;;;;;5.18;3.03;;;;;;;;;;5026942;28;20084;-59
2023/04/01 12:28:20;;;;;;;6.30;2.50;;;;;;;;;;5042690;28;20037;-59
2023/04/01 12:31:04;;;;;;;4.28;3.00;;;;;;;;;;5046599;28;20044;-60
2023/04/01 12:33:37;;;;;;;4.20;2.78;;;;;;;;;;5045019;28;20097;-61
2023/04/01 12:36:17;;;;;;;6.07;2.83;;;;;;;;;;5017113;28;20041;-61
2023/04/01 12:38:52;;;;;;;4.68;2.45;;;;;;;;;;5043413;28;20520;-61
2023/04/01 12:41:39;;;;;;;4.93;3.70;;;;;;;;;;5044394;28;20053;-61
2023/04/01 12:44:20;;;;;;;2.78;1.88;;;;;;;;;;5043256;28;20493;-61
2023/04/01 12:47:13;;;;;;;7.20;2.45;;;;;;;;;;5037385;28;20033;-60
2023/04/01 12:49:45;;;;;;;3.55;1.90;;;;;;;;;;5005619;28;20041;-60
2023/04/01 12:52:13;;;;;;;4.78;2.53;;;;;;;;;;5044100;28;20036;-60
2023/04/01 12:54:58;;;;;;;3.00;2.10;;;;;;;;;;5046563;28;20036;-60
2023/04/01 12:57:24;;;;;;;4.70;1.80;;;;;;;;;;5016141;28;20064;-59
2023/04/01 13:00:09;;;;;;;3.17;1.98;;;;;;;;;;5039062;28;20172;-59
2023/04/01 13:02:54;;;;;;;3.08;1.83;;;;;;;;;;5016818;28;20136;-59
2023/04/01 13:05:28;;;;;;;4.78;2.05;;;;;;;;;;5035384;28;20072;-59
2023/04/01 13:08:15;;;;;;;6.50;2.47;;;;;;;;;;5037572;28;20348;-59
2023/04/01 13:11:00;;;;;;;3.35;1.92;;;;;;;;;;5044384;28;20116;-59
2023/04/01 13:13:50;;;;;;;4.50;2.00;;;;;;;;;;5024250;28;20033;-59
2023/04/01 13:16:27;;;;;;;5.07;2.67;;;;;;;;;;5007384;28;20057;-59
2023/04/01 13:18:54;;;;;;;4.38;2.30;;;;;;;;;;5037126;28;20043;-59
2023/04/01 13:21:39;;;;;;;4.75;2.50;;;;;;;;;;5003612;28;20075;-59
2023/04/01 13:24:05;;;;;;;4.93;3.38;;;;;;;;;;5037759;28;20034;-59
2023/04/01 13:26:44;;;;;;;3.65;2.50;;;;;;;;;;5031568;28;20083;-59
2023/04/01 13:29:19;;;;;;;4.30;2.20;;;;;;;;;;5032681;28;20144;-60
2023/04/01 13:31:51;;;;;;;4.43;2.63;;;;;;;;;;5005431;28;20378;-60
2023/04/01 13:34:31;;;;;;;2.97;2.15;;;;;;;;;;5029808;28;20082;-60
2023/04/01 13:37:10;;;;;;;2.63;2.05;;;;;;;;;;5026423;28;20068;-60
2023/04/01 13:39:36;;;;;;;4.20;2.15;;;;;;;;;;5027083;28;20056;-59
2023/04/01 13:42:24;;;;;;;4.68;2.42;;;;;;;;;;5048624;28;20083;-59
2023/04/01 13:44:56;;;;;;;3.35;2.33;;;;;;;;;;5046028;28;20041;-60
2023/04/01 13:47:48;;;;;;;3.47;2.20;;;;;;;;;;5040615;28;20037;-60
2023/04/01 13:50:15;;;;;;;2.42;1.58;;;;;;;;;;5043366;28;20049;-60
2023/04/01 13:52:56;;;;;;;4.07;2.00;;;;;;;;;;5016797;28;20068;-60
2023/04/01 13:55:26;;;;;;;3.97;2.20;;;;;;;;;;5037095;28;20033;-60
2023/04/01 13:58:11;;;;;;;3.42;2.20;;;;;;;;;;5033974;28;20052;-59
2023/04/01 14:00:56;;;;;;;1.88;1.45;;;;;;;;;;5035481;28;20044;-60
2023/04/01 14:03:41;;;;;;;2.88;2.13;;;;;;;;;;5035114;28;20045;-59
2023/04/01 14:06:17;;;;;;;4.55;2.55;;;;;;;;;;5031946;28;20354;-60
2023/04/01 14:08:44;;;;;;;3.25;2.40;;;;;;;;;;5029880;28;20419;-59
2023/04/01 14:11:10;;;;;;;3.92;2.15;;;;;;;;;;5034429;28;20040;-59
2023/04/01 14:13:47;;;;;;;3.85;2.17;;;;;;;;;;5033880;28;20037;-59
2023/04/01 14:16:22;;;;;;;4.63;2.47;;;;;;;;;;5007478;28;20049;-59
2023/04/01 14:18:53;;;;;;;5.57;2.47;;;;;;;;;;5027249;28;20128;-59
2023/04/01 14:21:28;;;;;;;3.85;2.40;;;;;;;;;;5027321;28;20439;-59
2023/04/01 14:23:57;;;;;;;3.15;1.77;;;;;;;;;;5025706;28;20041;-59
2023/04/01 14:26:32;;;;;;;5.18;1.90;;;;;;;;;;5020558;28;20033;-59
2023/04/01 14:29:05;;;;;;;4.85;2.55;;;;;;;;;;5009208;28;20220;-59
2023/04/01 14:32:11;;;;;;;4.38;1.70;;;11.10;99.90;;;;;;5006846;28;20045;-59
2023/04/01 14:35:13;;;;;;;3.47;1.90;;;9.60;99.90;;;;;;5025452;28;20033;-59
2023/04/01 14:37:54;;;;;;;3.60;1.90;;;9.60;99.90;;;;;;5022550;28;20100;-59
2023/04/01 14:40:58;;;;;;;2.35;1.95;;;9.50;99.90;;;;;;5029878;28;20041;-59
2023/04/01 14:43:52;;;;;;;2.30;1.35;;;9.50;99.90;;;;;;5025404;28;20542;-59
2023/04/01 14:46:46;;;;;;;3.97;1.92;;;9.50;99.90;;;;;;5033570;28;20045;-59
2023/04/01 14:49:37;;;;;;;3.03;1.17;;;9.50;99.90;;;;;;5007552;28;20058;-59
2023/04/01 14:52:35;;;;;;;5.10;1.75;;;9.40;99.90;;;;;;5022603;28;20049;-59
2023/04/01 14:55:18;;;;;;;2.65;1.60;;;9.40;99.90;;;;;;5025850;28;20383;-59
2023/04/01 14:58:18;;;;;;;2.85;1.73;;;9.30;99.90;;;;;;5028500;28;20041;-62
2023/04/01 15:01:02;;;;;;;2.22;1.63;;;9.30;99.90;;;;;;5025625;28;20053;-59